Wetterdaten: Woche 02.07.07 - 08.07.07 (KW27)
Datum Zeit Temperatur Luftfeuchte Luftdruck Niederschlag Wind Richtung Sonnenschein Solar Taupunkt Windchill Windben
02.07.2007 00:00 15.7 C 92 % 1011.2 hPa 0.0 l/m 0.5 km/h (0 Bft) O 0.00 h 0 W/m 14.3 C 15.7 C 1.0 km/h (0 Bft)
02.07.2007 01:00 15.4 C 95 % 1011.3 hPa 0.0 l/m 0.9 km/h (0 Bft) SO 0.00 h 0 W/m 14.6 C 15.4 C 1.4 km/h (1 Bft)
02.07.2007 02:00 15.5 C 95 % 1011.5 hPa 0.8 l/m 1.5 km/h (1 Bft) S-SO 0.00 h 0 W/m 14.7 C 15.5 C 3.3 km/h (1 Bft)
02.07.2007 03:00 15.4 C 96 % 1011.1 hPa 1.2 l/m 1.7 km/h (1 Bft) S-SO 0.00 h 0 W/m 14.7 C 15.4 C 3.6 km/h (1 Bft)
02.07.2007 04:00 15.4 C 96 % 1010.7 hPa 0.0 l/m 0.9 km/h (0 Bft) S-SO 0.00 h 0 W/m 14.9 C 15.4 C 2.3 km/h (1 Bft)
02.07.2007 05:00 15.3 C 96 % 1010.3 hPa 0.2 l/m 0.8 km/h (0 Bft) SO 0.00 h 6 W/m 14.7 C 15.3 C 2.4 km/h (1 Bft)
02.07.2007 06:00 15.3 C 95 % 1010.1 hPa 0.0 l/m 1.8 km/h (1 Bft) S-SO 0.00 h 13 W/m 14.5 C 15.3 C 3.9 km/h (1 Bft)
02.07.2007 07:00 15.4 C 95 % 1010.6 hPa 0.2 l/m 3.4 km/h (1 Bft) S-SO 0.00 h 26 W/m 14.6 C 15.4 C 6.4 km/h (2 Bft)
02.07.2007 08:00 15.6 C 96 % 1011.1 hPa 0.8 l/m 2.2 km/h (1 Bft) S-SO 0.00 h 62 W/m 15.0 C 15.6 C 5.0 km/h (1 Bft)
02.07.2007 09:00 16.1 C 97 % 1011.2 hPa 0.2 l/m 1.3 km/h (1 Bft) S 0.00 h 89 W/m 15.6 C 16.1 C 3.5 km/h (1 Bft)
02.07.2007 10:00 14.1 C 96 % 1012.0 hPa 0.6 l/m 10.5 km/h (2 Bft) W 0.00 h 69 W/m 13.5 C 14.1 C 16.0 km/h (3 Bft)
02.07.2007 11:00 14.2 C 97 % 1012.3 hPa 0.0 l/m 1.6 km/h (1 Bft) W-NW 0.00 h 82 W/m 13.7 C 14.2 C 3.6 km/h (1 Bft)
02.07.2007 12:00 14.8 C 93 % 1012.5 hPa 0.4 l/m 1.7 km/h (1 Bft) S-SO 0.00 h 106 W/m 13.7 C 14.8 C 3.9 km/h (1 Bft)
02.07.2007 13:00 15.8 C 93 % 1012.2 hPa 0.2 l/m 1.3 km/h (1 Bft) SO 0.00 h 268 W/m 14.7 C 15.8 C 3.4 km/h (1 Bft)
02.07.2007 14:00 17.5 C 88 % 1011.7 hPa 0.0 l/m 3.3 km/h (1 Bft) S-SO 0.30 h 454 W/m 15.6 C 17.5 C 7.4 km/h (2 Bft)
02.07.2007 15:00 17.4 C 85 % 1011.5 hPa 0.6 l/m 2.2 km/h (1 Bft) S-SO 0.00 h 179 W/m 14.9 C 17.4 C 5.1 km/h (1 Bft)
02.07.2007 16:00 15.4 C 92 % 1012.2 hPa 1.8 l/m 4.5 km/h (1 Bft) S-SO 0.00 h 125 W/m 14.1 C 15.4 C 8.3 km/h (2 Bft)
02.07.2007 17:00 15.8 C 91 % 1012.2 hPa 0.0 l/m 2.5 km/h (1 Bft) S-SO 0.00 h 199 W/m 14.4 C 15.8 C 5.8 km/h (2 Bft)
02.07.2007 18:00 16.2 C 90 % 1011.9 hPa 0.0 l/m 3.0 km/h (1 Bft) S-SO 0.18 h 217 W/m 14.5 C 16.2 C 6.9 km/h (2 Bft)
02.07.2007 19:00 15.7 C 92 % 1012.4 hPa 0.4 l/m 4.7 km/h (1 Bft) W 0.17 h 116 W/m 14.4 C 15.7 C 7.3 km/h (2 Bft)
02.07.2007 20:00 14.3 C 91 % 1012.8 hPa 0.0 l/m 6.2 km/h (2 Bft) W 0.00 h 32 W/m 12.8 C 14.3 C 9.7 km/h (2 Bft)
02.07.2007 21:00 14.2 C 91 % 1012.8 hPa 0.0 l/m 1.9 km/h (1 Bft) O 0.00 h 12 W/m 12.8 C 14.2 C 3.3 km/h (1 Bft)
02.07.2007 22:00 13.9 C 96 % 1013.7 hPa 1.6 l/m 2.0 km/h (1 Bft) SO 0.00 h 0 W/m 13.2 C 13.9 C 3.2 km/h (1 Bft)
02.07.2007 23:00 13.7 C 97 % 1013.9 hPa 0.0 l/m 0.2 km/h (0 Bft) O-SO 0.00 h 0 W/m 13.2 C 13.7 C 0.6 km/h (0 Bft)
03.07.2007 00:00 13.4 C 97 % 1014.1 hPa 0.0 l/m 0.9 km/h (0 Bft) SO 0.00 h 0 W/m 13.0 C 13.4 C 1.7 km/h (1 Bft)
03.07.2007 01:00 12.8 C 98 % 1014.0 hPa 0.2 l/m 0.3 km/h (0 Bft) SO 0.00 h 0 W/m 12.6 C 12.8 C 1.1 km/h (0 Bft)
03.07.2007 02:00 12.9 C 99 % 1013.4 hPa 0.0 l/m 0.0 km/h (0 Bft) SO 0.00 h 0 W/m 12.7 C 12.9 C 0.3 km/h (0 Bft)
03.07.2007 03:00 12.8 C 100 % 1013.1 hPa 0.0 l/m 0.1 km/h (0 Bft) SO 0.00 h 0 W/m 12.8 C 12.8 C 0.3 km/h (0 Bft)
03.07.2007 04:00 12.8 C 100 % 1012.5 hPa 0.0 l/m 0.0 km/h (0 Bft) N 0.00 h 0 W/m 12.8 C 12.8 C 0.1 km/h (0 Bft)
03.07.2007 05:00 12.8 C 100 % 1012.4 hPa 0.0 l/m 0.0 km/h (0 Bft) N 0.08 h 13 W/m 12.8 C 12.8 C 0.0 km/h (0 Bft)
03.07.2007 06:00 12.6 C 100 % 1012.3 hPa 0.0 l/m 0.0 km/h (0 Bft) N 0.12 h 45 W/m 12.6 C 12.6 C 0.0 km/h (0 Bft)
03.07.2007 07:00 13.2 C 100 % 1011.9 hPa 0.0 l/m 0.0 km/h (0 Bft) N 0.15 h 117 W/m 13.2 C 13.2 C 0.0 km/h (0 Bft)
03.07.2007 08:00 14.5 C 95 % 1011.6 hPa 0.0 l/m 0.0 km/h (0 Bft) N 0.63 h 324 W/m 13.7 C 14.5 C 0.0 km/h (0 Bft)
03.07.2007 09:00 16.1 C 84 % 1010.8 hPa 0.0 l/m 0.0 km/h (0 Bft) N 0.80 h 485 W/m 13.4 C 16.1 C 0.1 km/h (0 Bft)
03.07.2007 10:00 17.0 C 79 % 1010.0 hPa 0.0 l/m 0.0 km/h (0 Bft) N 0.25 h 394 W/m 13.4 C 17.0 C 0.0 km/h (0 Bft)
03.07.2007 11:00 17.8 C 78 % 1009.3 hPa 0.0 l/m 0.8 km/h (0 Bft) SW 0.12 h 376 W/m 14.0 C 17.8 C 1.6 km/h (1 Bft)
03.07.2007 12:00 16.9 C 81 % 1009.1 hPa 0.0 l/m 1.7 km/h (1 Bft) SW 0.00 h 189 W/m 13.6 C 16.9 C 4.3 km/h (1 Bft)
03.07.2007 13:00 16.6 C 87 % 1009.1 hPa 0.2 l/m 1.1 km/h (1 Bft) W 0.00 h 186 W/m 14.4 C 16.6 C 2.7 km/h (1 Bft)
03.07.2007 14:00 16.7 C 86 % 1008.9 hPa 0.0 l/m 1.0 km/h (0 Bft) W-SW 0.00 h 238 W/m 14.4 C 16.7 C 2.9 km/h (1 Bft)
03.07.2007 15:00 16.8 C 88 % 1008.3 hPa 0.4 l/m 1.0 km/h (0 Bft) W-SW 0.00 h 209 W/m 14.8 C 16.8 C 3.0 km/h (1 Bft)
03.07.2007 16:00 15.2 C 93 % 1009.1 hPa 1.2 l/m 2.8 km/h (1 Bft) W-SW 0.00 h 100 W/m 14.0 C 15.2 C 6.2 km/h (2 Bft)
03.07.2007 17:00 13.7 C 96 % 1009.4 hPa 2.0 l/m 2.2 km/h (1 Bft) W 0.00 h 52 W/m 13.1 C 13.7 C 4.2 km/h (1 Bft)
03.07.2007 18:00 13.2 C 98 % 1009.6 hPa 2.4 l/m 1.4 km/h (1 Bft) S-SO 0.00 h 40 W/m 12.9 C 13.2 C 3.4 km/h (1 Bft)
03.07.2007 19:00 13.2 C 96 % 1008.8 hPa 0.6 l/m 2.4 km/h (1 Bft) S-SO 0.00 h 55 W/m 12.6 C 13.2 C 5.2 km/h (1 Bft)
03.07.2007 20:00 13.3 C 97 % 1008.7 hPa 2.0 l/m 2.1 km/h (1 Bft) S-SO 0.00 h 10 W/m 12.8 C 13.3 C 5.3 km/h (1 Bft)
03.07.2007 21:00 13.5 C 97 % 1008.1 hPa 0.6 l/m 1.9 km/h (1 Bft) S-SO 0.07 h 11 W/m 13.1 C 13.5 C 4.9 km/h (1 Bft)
03.07.2007 22:00 13.7 C 97 % 1008.0 hPa 0.8 l/m 2.9 km/h (1 Bft) S-SO 0.00 h 0 W/m 13.3 C 13.7 C 5.7 km/h (1 Bft)
03.07.2007 23:00 13.8 C 97 % 1007.5 hPa 0.0 l/m 1.3 km/h (1 Bft) S-SO 0.00 h 0 W/m 13.5 C 13.8 C 3.4 km/h (1 Bft)
04.07.2007 00:00 13.6 C 97 % 1007.1 hPa 0.0 l/m 1.1 km/h (1 Bft) S-SO 0.00 h 0 W/m 13.2 C 13.6 C 3.5 km/h (1 Bft)
04.07.2007 01:00 13.4 C 97 % 1006.8 hPa 0.2 l/m 1.6 km/h (1 Bft) W 0.00 h 0 W/m 13.0 C 13.4 C 4.5 km/h (1 Bft)
04.07.2007 02:00 13.4 C 98 % 1006.5 hPa 0.0 l/m 2.9 km/h (1 Bft) SW 0.00 h 0 W/m 13.2 C 13.4 C 6.1 km/h (2 Bft)
04.07.2007 03:00 13.5 C 98 % 1007.0 hPa 0.2 l/m 8.8 km/h (2 Bft) W 0.00 h 0 W/m 13.1 C 13.5 C 14.9 km/h (3 Bft)
04.07.2007 04:00 13.2 C 93 % 1007.5 hPa 1.0 l/m 5.2 km/h (1 Bft) W-SW 0.00 h 0 W/m 12.1 C 13.2 C 10.2 km/h (2 Bft)
04.07.2007 05:00 12.5 C 96 % 1007.8 hPa 1.0 l/m 9.2 km/h (2 Bft) W 0.00 h 5 W/m 11.9 C 12.5 C 14.8 km/h (3 Bft)
04.07.2007 06:00 12.3 C 96 % 1008.4 hPa 0.2 l/m 11.7 km/h (2 Bft) W 0.00 h 19 W/m 11.7 C 12.3 C 19.1 km/h (3 Bft)
04.07.2007 07:00 11.7 C 88 % 1009.5 hPa 0.4 l/m 18.6 km/h (3 Bft) W 0.17 h 98 W/m 9.8 C 11.7 C 27.7 km/h (4 Bft)
04.07.2007 08:00 11.2 C 95 % 1010.3 hPa 0.8 l/m 5.8 km/h (2 Bft) W 0.02 h 101 W/m 10.5 C 11.2 C 9.7 km/h (2 Bft)
04.07.2007 09:00 13.0 C 91 % 1010.2 hPa 0.0 l/m 6.5 km/h (2 Bft) W 0.57 h 470 W/m 11.5 C 13.0 C 11.1 km/h (2 Bft)
04.07.2007 10:00 13.1 C 85 % 1010.1 hPa 1.6 l/m 16.3 km/h (3 Bft) W 0.32 h 283 W/m 10.5 C 13.1 C 24.6 km/h (4 Bft)
04.07.2007 11:00 10.9 C 94 % 1011.3 hPa 0.2 l/m 9.1 km/h (2 Bft) W 0.00 h 267 W/m 10.0 C 10.9 C 14.5 km/h (3 Bft)
04.07.2007 12:00 13.5 C 83 % 1011.2 hPa 0.0 l/m 11.2 km/h (2 Bft) W 0.55 h 712 W/m 10.6 C 13.5 C 18.1 km/h (3 Bft)
04.07.2007 13:00 12.7 C 82 % 1011.7 hPa 0.0 l/m 16.6 km/h (3 Bft) W 0.00 h 194 W/m 9.7 C 12.7 C 24.9 km/h (4 Bft)
04.07.2007 14:00 14.7 C 79 % 1011.7 hPa 0.0 l/m 7.7 km/h (2 Bft) W 0.37 h 577 W/m 11.1 C 14.7 C 12.3 km/h (3 Bft)
04.07.2007 15:00 13.2 C 85 % 1012.4 hPa 0.6 l/m 14.9 km/h (3 Bft) W 0.30 h 362 W/m 10.8 C 13.2 C 22.2 km/h (4 Bft)
04.07.2007 16:00 15.9 C 75 % 1012.3 hPa 0.0 l/m 9.2 km/h (2 Bft) W 0.67 h 523 W/m 11.5 C 15.9 C 14.5 km/h (3 Bft)
04.07.2007 17:00 12.7 C 91 % 1013.2 hPa 2.0 l/m 10.5 km/h (2 Bft) W 0.40 h 313 W/m 11.3 C 12.7 C 16.3 km/h (3 Bft)
04.07.2007 18:00 13.3 C 90 % 1013.2 hPa 0.2 l/m 3.7 km/h (1 Bft) W-SW 0.05 h 127 W/m 11.6 C 13.3 C 6.5 km/h (2 Bft)
04.07.2007 19:00 12.4 C 94 % 1013.9 hPa 2.8 l/m 1.5 km/h (1 Bft) S 0.00 h 30 W/m 11.5 C 12.4 C 3.8 km/h (1 Bft)
04.07.2007 20:00 11.9 C 97 % 1014.8 hPa 1.8 l/m 1.9 km/h (1 Bft) W-SW 0.00 h 26 W/m 11.4 C 11.9 C 4.5 km/h (1 Bft)
04.07.2007 21:00 11.5 C 96 % 1015.3 hPa 1.4 l/m 3.7 km/h (1 Bft) S-SO 0.00 h 0 W/m 10.8 C 11.5 C 6.7 km/h (2 Bft)
04.07.2007 22:00 11.3 C 98 % 1016.2 hPa 0.8 l/m 2.9 km/h (1 Bft) S-SO 0.00 h 0 W/m 11.0 C 11.3 C 5.8 km/h (2 Bft)
04.07.2007 23:00 11.3 C 98 % 1016.7 hPa 0.0 l/m 1.0 km/h (0 Bft) S-SW 0.00 h 0 W/m 11.0 C 11.3 C 3.1 km/h (1 Bft)
05.07.2007 00:00 11.3 C 97 % 1016.5 hPa 0.0 l/m 1.4 km/h (1 Bft) S-SO 0.00 h 0 W/m 10.8 C 11.3 C 3.6 km/h (1 Bft)
05.07.2007 01:00 11.5 C 96 % 1016.6 hPa 0.2 l/m 1.0 km/h (0 Bft) S-SO 0.00 h 0 W/m 10.8 C 11.5 C 2.6 km/h (1 Bft)
05.07.2007 02:00 11.3 C 97 % 1016.6 hPa 0.0 l/m 1.8 km/h (1 Bft) S-SW 0.00 h 0 W/m 10.9 C 11.3 C 4.5 km/h (1 Bft)
05.07.2007 03:00 11.3 C 95 % 1016.6 hPa 0.0 l/m 2.6 km/h (1 Bft) S-SO 0.00 h 0 W/m 10.5 C 11.3 C 5.6 km/h (1 Bft)
05.07.2007 04:00 11.2 C 95 % 1016.5 hPa 0.2 l/m 2.6 km/h (1 Bft) S 0.00 h 0 W/m 10.4 C 11.2 C 5.8 km/h (2 Bft)
05.07.2007 05:00 11.2 C 97 % 1016.6 hPa 0.8 l/m 2.8 km/h (1 Bft) S-SO 0.00 h 0 W/m 10.6 C 11.2 C 5.3 km/h (1 Bft)
05.07.2007 06:00 11.1 C 98 % 1016.7 hPa 0.0 l/m 2.2 km/h (1 Bft) W 0.00 h 18 W/m 10.8 C 11.1 C 5.0 km/h (1 Bft)
05.07.2007 07:00 11.4 C 98 % 1017.0 hPa 0.2 l/m 6.6 km/h (2 Bft) W 0.00 h 61 W/m 11.0 C 11.4 C 11.6 km/h (2 Bft)
05.07.2007 08:00 12.0 C 93 % 1017.2 hPa 0.0 l/m 10.5 km/h (2 Bft) W 0.07 h 171 W/m 10.9 C 12.0 C 16.5 km/h (3 Bft)
05.07.2007 09:00 12.3 C 86 % 1017.5 hPa 0.0 l/m 11.4 km/h (2 Bft) W 0.00 h 105 W/m 10.1 C 12.3 C 18.8 km/h (3 Bft)
05.07.2007 10:00 12.8 C 83 % 1017.8 hPa 0.0 l/m 6.6 km/h (2 Bft) W-SW 0.00 h 142 W/m 10.1 C 12.8 C 11.7 km/h (2 Bft)
05.07.2007 11:00 13.1 C 84 % 1018.0 hPa 0.0 l/m 7.4 km/h (2 Bft) W 0.00 h 191 W/m 10.4 C 13.1 C 12.5 km/h (3 Bft)
05.07.2007 12:00 12.4 C 92 % 1018.7 hPa 0.8 l/m 5.5 km/h (1 Bft) W-SW 0.00 h 121 W/m 11.1 C 12.4 C 9.2 km/h (2 Bft)
05.07.2007 13:00 12.9 C 91 % 1018.7 hPa 0.2 l/m 2.8 km/h (1 Bft) W-SW 0.00 h 136 W/m 11.5 C 12.9 C 6.2 km/h (2 Bft)
05.07.2007 14:00 13.1 C 91 % 1018.8 hPa 0.8 l/m 4.4 km/h (1 Bft) W-NW 0.00 h 128 W/m 11.7 C 13.1 C 8.1 km/h (2 Bft)
05.07.2007 15:00 13.2 C 91 % 1018.9 hPa 0.4 l/m 6.8 km/h (2 Bft) W 0.00 h 156 W/m 11.7 C 13.2 C 11.1 km/h (2 Bft)
05.07.2007 16:00 14.0 C 89 % 1018.8 hPa 0.0 l/m 6.5 km/h (2 Bft) W 0.08 h 249 W/m 12.3 C 14.0 C 10.2 km/h (2 Bft)
05.07.2007 17:00 14.9 C 82 % 1018.7 hPa 0.2 l/m 10.3 km/h (2 Bft) W 0.25 h 311 W/m 11.8 C 14.9 C 16.0 km/h (3 Bft)
05.07.2007 18:00 14.8 C 79 % 1018.8 hPa 0.0 l/m 11.1 km/h (2 Bft) W 0.00 h 140 W/m 11.2 C 14.8 C 17.2 km/h (3 Bft)
05.07.2007 19:00 14.4 C 83 % 1019.2 hPa 0.0 l/m 5.9 km/h (2 Bft) W-NW 0.15 h 123 W/m 11.5 C 14.4 C 8.7 km/h (2 Bft)
05.07.2007 20:00 14.0 C 81 % 1019.3 hPa 0.0 l/m 4.8 km/h (1 Bft) W 0.00 h 16 W/m 10.9 C 14.0 C 7.7 km/h (2 Bft)
05.07.2007 21:00 14.0 C 78 % 1019.6 hPa 0.0 l/m 5.4 km/h (1 Bft) W 0.00 h 6 W/m 10.2 C 14.0 C 8.9 km/h (2 Bft)
05.07.2007 22:00 14.4 C 73 % 1019.7 hPa 0.0 l/m 8.1 km/h (2 Bft) W 0.00 h 0 W/m 9.7 C 14.4 C 12.8 km/h (3 Bft)
05.07.2007 23:00 13.1 C 79 % 1019.6 hPa 0.0 l/m 1.9 km/h (1 Bft) W-NW 0.00 h 0 W/m 9.5 C 13.1 C 4.1 km/h (1 Bft)
06.07.2007 00:00 11.6 C 86 % 1019.6 hPa 0.0 l/m 4.1 km/h (1 Bft) O-SO 0.00 h 0 W/m 9.3 C 11.6 C 5.7 km/h (1 Bft)
06.07.2007 01:00 11.5 C 89 % 1019.1 hPa 0.0 l/m 1.5 km/h (1 Bft) SO 0.00 h 0 W/m 9.6 C 11.5 C 2.3 km/h (1 Bft)
06.07.2007 02:00 10.8 C 93 % 1018.4 hPa 0.0 l/m 0.2 km/h (0 Bft) SO 0.00 h 0 W/m 9.7 C 10.8 C 0.8 km/h (0 Bft)
06.07.2007 03:00 11.0 C 97 % 1017.8 hPa 0.0 l/m 0.1 km/h (0 Bft) N-NW 0.00 h 0 W/m 10.5 C 11.0 C 0.4 km/h (0 Bft)
06.07.2007 04:00 11.2 C 98 % 1017.2 hPa 0.0 l/m 0.2 km/h (0 Bft) N-NW 0.00 h 0 W/m 10.9 C 11.2 C 0.7 km/h (0 Bft)
06.07.2007 05:00 11.4 C 98 % 1016.9 hPa 0.2 l/m 0.5 km/h (0 Bft) SO 0.00 h 0 W/m 11.1 C 11.4 C 1.2 km/h (1 Bft)
06.07.2007 06:00 12.3 C 91 % 1016.6 hPa 0.0 l/m 1.9 km/h (1 Bft) S-SO 0.00 h 8 W/m 10.9 C 12.3 C 3.9 km/h (1 Bft)
06.07.2007 07:00 12.5 C 92 % 1016.5 hPa 0.0 l/m 1.7 km/h (1 Bft) S-SO 0.00 h 25 W/m 11.3 C 12.5 C 3.9 km/h (1 Bft)
06.07.2007 08:00 13.1 C 91 % 1016.4 hPa 0.0 l/m 1.2 km/h (1 Bft) N-NW 0.00 h 49 W/m 11.6 C 13.1 C 2.9 km/h (1 Bft)
06.07.2007 09:00 13.2 C 93 % 1016.1 hPa 0.0 l/m 1.6 km/h (1 Bft) N 0.00 h 84 W/m 12.0 C 13.2 C 3.2 km/h (1 Bft)
06.07.2007 10:00 13.7 C 92 % 1015.8 hPa 0.0 l/m 2.2 km/h (1 Bft) N 0.00 h 113 W/m 12.5 C 13.7 C 4.1 km/h (1 Bft)
06.07.2007 11:00 14.9 C 90 % 1015.8 hPa 0.2 l/m 3.7 km/h (1 Bft) W-NW 0.00 h 150 W/m 13.3 C 14.9 C 6.2 km/h (2 Bft)
06.07.2007 12:00 16.0 C 87 % 1016.0 hPa 0.0 l/m 11.7 km/h (2 Bft) W 0.00 h 247 W/m 13.9 C 16.0 C 18.5 km/h (3 Bft)
06.07.2007 13:00 16.5 C 92 % 1015.9 hPa 0.2 l/m 16.9 km/h (3 Bft) W 0.05 h 385 W/m 15.1 C 16.5 C 24.7 km/h (4 Bft)
06.07.2007 14:00 17.9 C 86 % 1015.7 hPa 0.0 l/m 13.7 km/h (3 Bft) W 0.27 h 477 W/m 15.5 C 17.9 C 21.0 km/h (4 Bft)
06.07.2007 15:00 18.3 C 82 % 1015.7 hPa 0.0 l/m 12.5 km/h (3 Bft) W 0.15 h 278 W/m 15.2 C 18.3 C 19.1 km/h (3 Bft)
06.07.2007 16:00 19.5 C 77 % 1015.8 hPa 0.0 l/m 12.2 km/h (2 Bft) W 0.27 h 419 W/m 15.3 C 19.5 C 19.7 km/h (3 Bft)
06.07.2007 17:00 21.3 C 67 % 1015.5 hPa 0.0 l/m 14.0 km/h (3 Bft) W 0.87 h 538 W/m 15.0 C 21.3 C 21.1 km/h (4 Bft)
06.07.2007 18:00 22.2 C 62 % 1015.1 hPa 0.0 l/m 11.4 km/h (2 Bft) W 0.88 h 367 W/m 14.6 C 22.2 C 17.7 km/h (3 Bft)
06.07.2007 19:00 21.6 C 60 % 1015.3 hPa 0.0 l/m 9.4 km/h (2 Bft) W 0.62 h 184 W/m 13.3 C 21.6 C 14.4 km/h (3 Bft)
06.07.2007 20:00 19.8 C 64 % 1015.7 hPa 0.0 l/m 7.3 km/h (2 Bft) W 0.18 h 44 W/m 12.7 C 19.8 C 11.0 km/h (2 Bft)
06.07.2007 21:00 18.4 C 71 % 1016.3 hPa 0.0 l/m 4.4 km/h (1 Bft) W 0.00 h 7 W/m 13.0 C 18.4 C 7.4 km/h (2 Bft)
06.07.2007 22:00 18.0 C 70 % 1016.9 hPa 0.0 l/m 1.5 km/h (1 Bft) S-SO 0.00 h 0 W/m 12.4 C 18.0 C 3.6 km/h (1 Bft)
06.07.2007 23:00 16.7 C 77 % 1017.0 hPa 0.0 l/m 1.8 km/h (1 Bft) S-SO 0.00 h 0 W/m 12.5 C 16.7 C 3.9 km/h (1 Bft)
07.07.2007 00:00 16.7 C 75 % 1017.0 hPa 0.0 l/m 2.1 km/h (1 Bft) W-NW 0.00 h 0 W/m 12.4 C 16.7 C 4.5 km/h (1 Bft)
07.07.2007 01:00 15.7 C 79 % 1017.1 hPa 0.0 l/m 1.7 km/h (1 Bft) SO 0.00 h 0 W/m 12.1 C 15.7 C 3.4 km/h (1 Bft)
07.07.2007 02:00 15.2 C 84 % 1017.1 hPa 0.0 l/m 1.2 km/h (1 Bft) S-SO 0.00 h 0 W/m 12.4 C 15.2 C 2.7 km/h (1 Bft)
07.07.2007 03:00 14.7 C 89 % 1017.3 hPa 0.0 l/m 4.0 km/h (1 Bft) W 0.00 h 0 W/m 12.9 C 14.7 C 6.6 km/h (2 Bft)
07.07.2007 04:00 14.9 C 90 % 1017.3 hPa 0.0 l/m 0.7 km/h (0 Bft) W-NW 0.00 h 0 W/m 13.3 C 14.9 C 1.4 km/h (1 Bft)
07.07.2007 05:00 14.8 C 91 % 1017.4 hPa 0.0 l/m 0.0 km/h (0 Bft) N 0.00 h 5 W/m 13.3 C 14.8 C 0.0 km/h (0 Bft)
07.07.2007 06:00 14.8 C 89 % 1017.9 hPa 0.0 l/m 0.0 km/h (0 Bft) N 0.00 h 25 W/m 13.0 C 14.8 C 0.0 km/h (0 Bft)
07.07.2007 07:00 15.8 C 85 % 1018.3 hPa 0.0 l/m 0.0 km/h (0 Bft) N 0.35 h 160 W/m 13.3 C 15.8 C 0.3 km/h (0 Bft)
07.07.2007 08:00 16.5 C 78 % 1018.7 hPa 0.0 l/m 4.1 km/h (1 Bft) W-NW 0.07 h 195 W/m 12.6 C 16.5 C 6.8 km/h (2 Bft)
07.07.2007 09:00 17.9 C 71 % 1018.7 hPa 0.0 l/m 4.1 km/h (1 Bft) W-NW 0.48 h 383 W/m 12.5 C 17.9 C 7.1 km/h (2 Bft)
07.07.2007 10:00 19.4 C 66 % 1018.5 hPa 0.0 l/m 2.7 km/h (1 Bft) W 0.62 h 481 W/m 12.9 C 19.4 C 4.8 km/h (1 Bft)
07.07.2007 11:00 20.4 C 63 % 1018.0 hPa 0.0 l/m 4.4 km/h (1 Bft) W 0.65 h 625 W/m 13.1 C 20.4 C 7.5 km/h (2 Bft)
07.07.2007 12:00 22.3 C 58 % 1017.6 hPa 0.0 l/m 7.1 km/h (2 Bft) W-NW 1.00 h 886 W/m 13.7 C 22.3 C 11.3 km/h (2 Bft)
07.07.2007 13:00 23.7 C 57 % 1017.3 hPa 0.0 l/m 6.0 km/h (2 Bft) W-NW 1.00 h 922 W/m 14.5 C 23.7 C 9.7 km/h (2 Bft)
07.07.2007 14:00 24.7 C 55 % 1016.8 hPa 0.0 l/m 7.0 km/h (2 Bft) W 1.00 h 874 W/m 15.1 C 24.7 C 11.1 km/h (2 Bft)
07.07.2007 15:00 25.3 C 54 % 1016.5 hPa 0.0 l/m 8.1 km/h (2 Bft) W 0.77 h 688 W/m 15.3 C 25.3 C 12.6 km/h (3 Bft)
07.07.2007 16:00 25.6 C 53 % 1016.4 hPa 0.0 l/m 8.5 km/h (2 Bft) W 1.00 h 705 W/m 15.2 C 25.6 C 13.3 km/h (3 Bft)
07.07.2007 17:00 25.9 C 52 % 1016.1 hPa 0.0 l/m 9.5 km/h (2 Bft) W 1.00 h 528 W/m 15.2 C 25.9 C 14.6 km/h (3 Bft)
07.07.2007 18:00 25.2 C 52 % 1016.0 hPa 0.0 l/m 12.8 km/h (3 Bft) W 1.00 h 368 W/m 14.5 C 25.2 C 19.8 km/h (4 Bft)
07.07.2007 19:00 24.4 C 52 % 1016.1 hPa 0.0 l/m 11.2 km/h (2 Bft) W-NW 1.00 h 218 W/m 14.0 C 24.4 C 17.1 km/h (3 Bft)
07.07.2007 20:00 23.1 C 55 % 1016.6 hPa 0.0 l/m 7.2 km/h (2 Bft) W-NW 0.60 h 79 W/m 13.5 C 23.1 C 11.0 km/h (2 Bft)
07.07.2007 21:00 20.6 C 65 % 1017.1 hPa 0.0 l/m 0.4 km/h (0 Bft) SW 0.03 h 11 W/m 13.9 C 20.6 C 1.4 km/h (1 Bft)
07.07.2007 22:00 18.2 C 77 % 1017.7 hPa 0.0 l/m 1.2 km/h (1 Bft) O-SO 0.00 h 0 W/m 14.0 C 18.2 C 2.2 km/h (1 Bft)
07.07.2007 23:00 16.4 C 85 % 1018.0 hPa 0.0 l/m 1.3 km/h (1 Bft) O-SO 0.00 h 0 W/m 13.9 C 16.4 C 2.3 km/h (1 Bft)
08.07.2007 00:00 15.8 C 87 % 1018.4 hPa 0.0 l/m 0.6 km/h (0 Bft) O-SO 0.00 h 0 W/m 13.6 C 15.8 C 1.4 km/h (1 Bft)
08.07.2007 01:00 15.0 C 91 % 1018.4 hPa 0.0 l/m 0.1 km/h (0 Bft) O-SO 0.00 h 0 W/m 13.6 C 15.0 C 0.3 km/h (0 Bft)
08.07.2007 02:00 14.7 C 93 % 1018.1 hPa 0.0 l/m 0.0 km/h (0 Bft) N 0.00 h 0 W/m 13.5 C 14.7 C 0.0 km/h (0 Bft)
08.07.2007 03:00 14.0 C 94 % 1017.8 hPa 0.0 l/m 0.3 km/h (0 Bft) O-SO 0.00 h 0 W/m 13.1 C 14.0 C 0.7 km/h (0 Bft)
08.07.2007 04:00 13.4 C 96 % 1017.5 hPa 0.0 l/m 0.2 km/h (0 Bft) O-SO 0.00 h 0 W/m 12.8 C 13.4 C 0.6 km/h (0 Bft)
08.07.2007 05:00 13.0 C 97 % 1017.6 hPa 0.0 l/m 0.2 km/h (0 Bft) O-SO 0.02 h 9 W/m 12.5 C 13.0 C 0.5 km/h (0 Bft)
08.07.2007 06:00 13.0 C 97 % 1017.6 hPa 0.0 l/m 0.4 km/h (0 Bft) O-SO 0.00 h 30 W/m 12.6 C 13.0 C 0.9 km/h (0 Bft)
08.07.2007 07:00 14.3 C 96 % 1017.8 hPa 0.0 l/m 0.2 km/h (0 Bft) O-SO 0.08 h 101 W/m 13.6 C 14.3 C 0.5 km/h (0 Bft)
08.07.2007 08:00 15.9 C 89 % 1018.0 hPa 0.0 l/m 0.3 km/h (0 Bft) S 0.10 h 175 W/m 14.1 C 15.9 C 0.8 km/h (0 Bft)
08.07.2007 09:00 17.6 C 86 % 1017.7 hPa 0.0 l/m 1.2 km/h (1 Bft) N-NO 0.47 h 372 W/m 15.1 C 17.6 C 2.6 km/h (1 Bft)
08.07.2007 10:00 19.4 C 80 % 1017.3 hPa 0.0 l/m 2.3 km/h (1 Bft) NW 0.37 h 422 W/m 15.7 C 19.4 C 4.1 km/h (1 Bft)
08.07.2007 11:00 21.9 C 73 % 1016.7 hPa 0.0 l/m 3.2 km/h (1 Bft) NW 0.80 h 630 W/m 16.9 C 21.9 C 5.3 km/h (1 Bft)
08.07.2007 12:00 20.2 C 82 % 1017.8 hPa 0.2 l/m 1.6 km/h (1 Bft) S-SO 0.00 h 92 W/m 16.9 C 20.2 C 3.6 km/h (1 Bft)
08.07.2007 13:00 18.7 C 88 % 1018.5 hPa 0.6 l/m 2.8 km/h (1 Bft) W-NW 0.00 h 128 W/m 16.7 C 18.7 C 4.7 km/h (1 Bft)
08.07.2007 14:00 18.7 C 93 % 1018.2 hPa 1.6 l/m 0.5 km/h (0 Bft) S-SO 0.00 h 158 W/m 17.5 C 18.7 C 1.6 km/h (1 Bft)
08.07.2007 15:00 19.2 C 95 % 1017.7 hPa 0.0 l/m 1.1 km/h (0 Bft) SW 0.32 h 378 W/m 18.4 C 19.2 C 3.1 km/h (1 Bft)
08.07.2007 16:00 20.8 C 84 % 1017.0 hPa 0.0 l/m 1.8 km/h (1 Bft) SW 0.68 h 559 W/m 17.9 C 20.8 C 4.9 km/h (1 Bft)
08.07.2007 17:00 19.0 C 88 % 1017.2 hPa 1.0 l/m 0.2 km/h (0 Bft) S 0.00 h 76 W/m 17.1 C 19.0 C 1.1 km/h (1 Bft)
08.07.2007 18:00 18.8 C 94 % 1016.2 hPa 0.4 l/m 0.6 km/h (0 Bft) SO 0.00 h 109 W/m 17.7 C 18.8 C 1.4 km/h (1 Bft)
08.07.2007 19:00 19.1 C 95 % 1015.1 hPa 0.0 l/m 2.8 km/h (1 Bft) W-NW 0.40 h 175 W/m 18.4 C 19.1 C 4.9 km/h (1 Bft)
08.07.2007 20:00 19.0 C 93 % 1014.7 hPa 0.0 l/m 0.4 km/h (0 Bft) NW 0.15 h 60 W/m 17.8 C 19.0 C 0.9 km/h (0 Bft)
08.07.2007 21:00 18.1 C 97 % 1014.6 hPa 0.0 l/m 0.7 km/h (0 Bft) O 0.00 h 8 W/m 17.5 C 18.1 C 1.4 km/h (1 Bft)
08.07.2007 22:00 18.0 C 96 % 1014.7 hPa 0.2 l/m 4.4 km/h (1 Bft) S-SO 0.00 h 0 W/m 17.3 C 18.0 C 8.2 km/h (2 Bft)
08.07.2007 23:00 17.6 C 93 % 1014.6 hPa 0.0 l/m 1.2 km/h (1 Bft) W-NW 0.00 h 0 W/m 16.4 C 17.6 C 2.8 km/h (1 Bft)
Min-Datum _ 04.07.07 07.07.07 04.07.07 - 02.07.07 - - - 06.07.07 04.07.07 02.07.07
_ Min-Zeit 11:00 17:22 02:30 - 00:00 - - - 00:07 11:00 00:00
Minimum _ 10.2 C 48 % 1006.3 hPa - 0.0 km/h (0 Bft) - - - 8.9 C 10.2 C 0.0 km/h (0 Bft)
Max-Datum _ 07.07.07 03.07.07 05.07.07 04.07.07 04.07.07 - 02.07.07 04.07.07 08.07.07 07.07.07 04.07.07
_ Max-Zeit 15:59 03:04 21:45 19:03 13:15 - 14:32 12:42 16:14 15:59 06:53
Maximum _ 26.2 C 100 % 1019.8 hPa 2.8 l/m 37.5 km/h
W (5 Bft)
- 0.02 h 1153 W/m 19.6 C 26.2 C 50.4 km/h
W-NW (7 Bft)
Durchschnitt _ 15.4 C 87 % 1014.6 hPa #43.0 l/m 4.0 km/h (1 Bft) W #24:03 h 216 W/m 13.1 C 15.4 C 6.8 km/h (2 Bft)
© Kaiko 2007